sensor_id;sensor_type;location;lat;lon;timestamp;P1;durP1;ratioP1;P2;durP2;ratioP2
25913;SDS011;13718;50.922;5.346;2023-08-24T00:01:40;11.68;;;5.97;;
25913;SDS011;13718;50.922;5.346;2023-08-24T00:04:06;10.80;;;5.78;;
25913;SDS011;13718;50.922;5.346;2023-08-24T00:06:32;10.35;;;5.40;;
25913;SDS011;13718;50.922;5.346;2023-08-24T00:08:58;14.43;;;6.25;;
25913;SDS011;13718;50.922;5.346;2023-08-24T00:11:24;9.48;;;6.40;;
25913;SDS011;13718;50.922;5.346;2023-08-24T00:13:50;13.27;;;7.68;;
25913;SDS011;13718;50.922;5.346;2023-08-24T00:16:16;14.38;;;7.95;;
25913;SDS011;13718;50.922;5.346;2023-08-24T00:18:42;12.00;;;8.43;;
25913;SDS011;13718;50.922;5.346;2023-08-24T00:21:08;18.70;;;9.60;;
25913;SDS011;13718;50.922;5.346;2023-08-24T00:23:34;19.70;;;9.13;;
25913;SDS011;13718;50.922;5.346;2023-08-24T00:25:59;16.63;;;9.30;;
25913;SDS011;13718;50.922;5.346;2023-08-24T00:28:25;14.05;;;9.93;;
25913;SDS011;13718;50.922;5.346;2023-08-24T00:30:51;15.95;;;10.10;;
25913;SDS011;13718;50.922;5.346;2023-08-24T00:33:17;18.25;;;11.02;;
25913;SDS011;13718;50.922;5.346;2023-08-24T00:35:42;17.83;;;10.45;;
25913;SDS011;13718;50.922;5.346;2023-08-24T00:38:09;20.95;;;11.00;;
25913;SDS011;13718;50.922;5.346;2023-08-24T00:40:34;17.63;;;10.38;;
25913;SDS011;13718;50.922;5.346;2023-08-24T00:43:00;16.83;;;11.25;;
25913;SDS011;13718;50.922;5.346;2023-08-24T00:45:26;21.33;;;11.10;;
25913;SDS011;13718;50.922;5.346;2023-08-24T00:47:51;17.33;;;10.88;;
25913;SDS011;13718;50.922;5.346;2023-08-24T00:50:17;17.30;;;11.10;;
25913;SDS011;13718;50.922;5.346;2023-08-24T00:52:43;21.73;;;10.65;;
25913;SDS011;13718;50.922;5.346;2023-08-24T00:55:09;19.40;;;11.10;;
25913;SDS011;13718;50.922;5.346;2023-08-24T00:57:35;21.83;;;11.63;;
25913;SDS011;13718;50.922;5.346;2023-08-24T01:00:03;21.65;;;11.05;;
25913;SDS011;13718;50.922;5.346;2023-08-24T01:02:31;18.38;;;11.05;;
25913;SDS011;13718;50.922;5.346;2023-08-24T01:04:57;22.27;;;11.23;;
25913;SDS011;13718;50.922;5.346;2023-08-24T01:07:23;20.48;;;11.10;;
25913;SDS011;13718;50.922;5.346;2023-08-24T01:09:50;20.63;;;11.35;;
25913;SDS011;13718;50.922;5.346;2023-08-24T01:14:52;18.48;;;10.95;;
25913;SDS011;13718;50.922;5.346;2023-08-24T01:17:34;19.50;;;11.10;;
25913;SDS011;13718;50.922;5.346;2023-08-24T01:20:01;19.88;;;11.25;;
25913;SDS011;13718;50.922;5.346;2023-08-24T01:22:34;23.42;;;11.50;;
25913;SDS011;13718;50.922;5.346;2023-08-24T01:25:45;20.85;;;11.43;;
25913;SDS011;13718;50.922;5.346;2023-08-24T01:28:05;22.75;;;11.75;;
25913;SDS011;13718;50.922;5.346;2023-08-24T01:30:32;19.63;;;11.50;;
25913;SDS011;13718;50.922;5.346;2023-08-24T01:32:59;22.02;;;10.90;;
25913;SDS011;13718;50.922;5.346;2023-08-24T01:35:28;21.25;;;10.73;;
25913;SDS011;13718;50.922;5.346;2023-08-24T01:37:54;20.48;;;11.25;;
25913;SDS011;13718;50.922;5.346;2023-08-24T01:40:21;21.10;;;11.85;;
25913;SDS011;13718;50.922;5.346;2023-08-24T01:42:53;19.23;;;11.45;;
25913;SDS011;13718;50.922;5.346;2023-08-24T01:45:23;24.02;;;11.85;;
25913;SDS011;13718;50.922;5.346;2023-08-24T01:47:52;23.30;;;10.80;;
25913;SDS011;13718;50.922;5.346;2023-08-24T01:50:19;18.38;;;11.27;;
25913;SDS011;13718;50.922;5.346;2023-08-24T01:52:46;21.67;;;12.65;;
25913;SDS011;13718;50.922;5.346;2023-08-24T01:55:11;18.08;;;10.77;;
25913;SDS011;13718;50.922;5.346;2023-08-24T01:57:37;16.90;;;11.40;;
25913;SDS011;13718;50.922;5.346;2023-08-24T02:00:04;19.55;;;11.52;;
25913;SDS011;13718;50.922;5.346;2023-08-24T02:02:34;19.43;;;10.33;;
25913;SDS011;13718;50.922;5.346;2023-08-24T02:05:01;18.90;;;11.45;;
25913;SDS011;13718;50.922;5.346;2023-08-24T02:07:29;22.05;;;11.00;;
25913;SDS011;13718;50.922;5.346;2023-08-24T02:09:55;17.17;;;10.45;;
25913;SDS011;13718;50.922;5.346;2023-08-24T02:12:21;18.92;;;11.10;;
25913;SDS011;13718;50.922;5.346;2023-08-24T02:14:47;15.75;;;10.13;;
25913;SDS011;13718;50.922;5.346;2023-08-24T02:17:12;20.63;;;10.73;;
25913;SDS011;13718;50.922;5.346;2023-08-24T02:19:39;17.83;;;10.52;;
25913;SDS011;13718;50.922;5.346;2023-08-24T02:22:06;20.27;;;10.02;;
25913;SDS011;13718;50.922;5.346;2023-08-24T02:24:32;17.17;;;10.35;;
25913;SDS011;13718;50.922;5.346;2023-08-24T02:26:57;17.33;;;9.63;;
25913;SDS011;13718;50.922;5.346;2023-08-24T02:29:23;15.48;;;10.20;;
25913;SDS011;13718;50.922;5.346;2023-08-24T02:31:51;14.98;;;9.55;;
25913;SDS011;13718;50.922;5.346;2023-08-24T02:34:17;16.70;;;9.00;;
25913;SDS011;13718;50.922;5.346;2023-08-24T02:36:43;17.95;;;9.73;;
25913;SDS011;13718;50.922;5.346;2023-08-24T02:39:09;15.18;;;10.43;;
25913;SDS011;13718;50.922;5.346;2023-08-24T02:41:35;16.48;;;9.88;;
25913;SDS011;13718;50.922;5.346;2023-08-24T02:44:00;15.50;;;9.45;;
25913;SDS011;13718;50.922;5.346;2023-08-24T02:46:26;14.70;;;9.85;;
25913;SDS011;13718;50.922;5.346;2023-08-24T02:48:52;18.48;;;10.00;;
25913;SDS011;13718;50.922;5.346;2023-08-24T02:51:20;17.13;;;9.93;;
25913;SDS011;13718;50.922;5.346;2023-08-24T02:53:46;18.10;;;10.25;;
25913;SDS011;13718;50.922;5.346;2023-08-24T02:56:12;19.70;;;11.15;;
25913;SDS011;13718;50.922;5.346;2023-08-24T02:58:37;20.25;;;11.73;;
25913;SDS011;13718;50.922;5.346;2023-08-24T03:01:06;21.80;;;12.63;;
25913;SDS011;13718;50.922;5.346;2023-08-24T03:03:36;21.45;;;12.02;;
25913;SDS011;13718;50.922;5.346;2023-08-24T03:06:02;23.10;;;13.63;;
25913;SDS011;13718;50.922;5.346;2023-08-24T03:08:30;21.70;;;13.80;;
25913;SDS011;13718;50.922;5.346;2023-08-24T03:11:00;21.75;;;14.70;;
25913;SDS011;13718;50.922;5.346;2023-08-24T03:13:26;24.95;;;16.83;;
25913;SDS011;13718;50.922;5.346;2023-08-24T03:15:53;29.17;;;18.52;;
25913;SDS011;13718;50.922;5.346;2023-08-24T03:18:19;32.75;;;19.67;;
25913;SDS011;13718;50.922;5.346;2023-08-24T03:20:45;30.17;;;19.27;;
25913;SDS011;13718;50.922;5.346;2023-08-24T03:23:12;32.15;;;20.08;;
25913;SDS011;13718;50.922;5.346;2023-08-24T03:25:39;31.27;;;19.15;;
25913;SDS011;13718;50.922;5.346;2023-08-24T03:28:05;30.65;;;19.02;;
25913;SDS011;13718;50.922;5.346;2023-08-24T03:30:35;31.33;;;19.08;;
25913;SDS011;13718;50.922;5.346;2023-08-24T03:33:02;31.90;;;18.60;;
25913;SDS011;13718;50.922;5.346;2023-08-24T03:35:28;34.88;;;19.38;;
25913;SDS011;13718;50.922;5.346;2023-08-24T03:37:55;30.95;;;19.40;;
25913;SDS011;13718;50.922;5.346;2023-08-24T03:40:21;36.13;;;20.33;;
25913;SDS011;13718;50.922;5.346;2023-08-24T03:42:46;38.30;;;21.95;;
25913;SDS011;13718;50.922;5.346;2023-08-24T03:45:12;33.17;;;22.30;;
25913;SDS011;13718;50.922;5.346;2023-08-24T03:47:38;35.80;;;23.55;;
25913;SDS011;13718;50.922;5.346;2023-08-24T03:50:03;38.92;;;23.48;;
25913;SDS011;13718;50.922;5.346;2023-08-24T03:52:29;36.08;;;21.40;;
25913;SDS011;13718;50.922;5.346;2023-08-24T03:54:56;35.58;;;21.83;;
25913;SDS011;13718;50.922;5.346;2023-08-24T03:57:22;29.67;;;22.30;;
25913;SDS011;13718;50.922;5.346;2023-08-24T03:59:47;33.05;;;21.77;;
25913;SDS011;13718;50.922;5.346;2023-08-24T04:02:13;38.95;;;22.75;;
25913;SDS011;13718;50.922;5.346;2023-08-24T04:04:38;33.35;;;22.52;;
25913;SDS011;13718;50.922;5.346;2023-08-24T04:07:04;29.45;;;19.75;;
25913;SDS011;13718;50.922;5.346;2023-08-24T04:09:30;34.47;;;22.33;;
25913;SDS011;13718;50.922;5.346;2023-08-24T04:11:55;31.23;;;21.00;;
25913;SDS011;13718;50.922;5.346;2023-08-24T04:14:21;32.17;;;21.25;;
25913;SDS011;13718;50.922;5.346;2023-08-24T04:16:46;33.67;;;20.75;;
25913;SDS011;13718;50.922;5.346;2023-08-24T04:19:12;36.92;;;22.60;;
25913;SDS011;13718;50.922;5.346;2023-08-24T04:21:38;30.08;;;20.63;;
25913;SDS011;13718;50.922;5.346;2023-08-24T04:24:03;30.90;;;19.75;;
25913;SDS011;13718;50.922;5.346;2023-08-24T04:26:29;32.53;;;20.95;;
25913;SDS011;13718;50.922;5.346;2023-08-24T04:28:55;33.80;;;21.25;;
25913;SDS011;13718;50.922;5.346;2023-08-24T04:31:21;34.33;;;21.90;;
25913;SDS011;13718;50.922;5.346;2023-08-24T04:33:47;34.78;;;22.15;;
25913;SDS011;13718;50.922;5.346;2023-08-24T04:36:12;36.40;;;22.23;;
25913;SDS011;13718;50.922;5.346;2023-08-24T04:38:38;37.22;;;22.42;;
25913;SDS011;13718;50.922;5.346;2023-08-24T04:41:06;33.88;;;22.38;;
25913;SDS011;13718;50.922;5.346;2023-08-24T04:43:33;35.28;;;22.90;;
25913;SDS011;13718;50.922;5.346;2023-08-24T04:45:59;33.33;;;22.52;;
25913;SDS011;13718;50.922;5.346;2023-08-24T04:48:25;32.72;;;22.40;;
25913;SDS011;13718;50.922;5.346;2023-08-24T04:50:51;33.63;;;22.65;;
25913;SDS011;13718;50.922;5.346;2023-08-24T04:53:18;37.55;;;23.05;;
25913;SDS011;13718;50.922;5.346;2023-08-24T04:55:44;40.03;;;22.35;;
25913;SDS011;13718;50.922;5.346;2023-08-24T04:58:10;35.35;;;22.23;;
25913;SDS011;13718;50.922;5.346;2023-08-24T05:00:37;37.92;;;23.88;;
25913;SDS011;13718;50.922;5.346;2023-08-24T05:03:05;37.67;;;23.17;;
25913;SDS011;13718;50.922;5.346;2023-08-24T05:05:32;38.60;;;24.67;;
25913;SDS011;13718;50.922;5.346;2023-08-24T05:07:59;37.30;;;23.58;;
25913;SDS011;13718;50.922;5.346;2023-08-24T05:10:26;42.45;;;25.05;;
25913;SDS011;13718;50.922;5.346;2023-08-24T05:12:56;39.90;;;25.08;;
25913;SDS011;13718;50.922;5.346;2023-08-24T05:15:22;42.33;;;25.08;;
25913;SDS011;13718;50.922;5.346;2023-08-24T05:17:47;44.20;;;25.88;;
25913;SDS011;13718;50.922;5.346;2023-08-24T05:20:13;43.05;;;24.95;;
25913;SDS011;13718;50.922;5.346;2023-08-24T05:22:39;41.67;;;25.38;;
25913;SDS011;13718;50.922;5.346;2023-08-24T05:25:05;37.38;;;25.48;;
25913;SDS011;13718;50.922;5.346;2023-08-24T05:27:31;40.88;;;25.30;;
25913;SDS011;13718;50.922;5.346;2023-08-24T05:29:56;42.20;;;25.95;;
25913;SDS011;13718;50.922;5.346;2023-08-24T05:32:22;41.47;;;25.27;;
25913;SDS011;13718;50.922;5.346;2023-08-24T05:34:48;47.55;;;26.27;;
25913;SDS011;13718;50.922;5.346;2023-08-24T05:37:13;41.78;;;25.23;;
25913;SDS011;13718;50.922;5.346;2023-08-24T05:39:39;31.30;;;23.00;;
25913;SDS011;13718;50.922;5.346;2023-08-24T05:42:05;40.40;;;24.83;;
25913;SDS011;13718;50.922;5.346;2023-08-24T05:44:30;38.08;;;24.48;;
25913;SDS011;13718;50.922;5.346;2023-08-24T05:46:56;39.58;;;26.10;;
25913;SDS011;13718;50.922;5.346;2023-08-24T05:49:22;42.85;;;25.48;;
25913;SDS011;13718;50.922;5.346;2023-08-24T05:51:49;38.75;;;25.20;;
25913;SDS011;13718;50.922;5.346;2023-08-24T05:54:16;45.78;;;26.65;;
25913;SDS011;13718;50.922;5.346;2023-08-24T05:56:45;41.28;;;26.35;;
25913;SDS011;13718;50.922;5.346;2023-08-24T05:59:11;40.05;;;24.73;;
25913;SDS011;13718;50.922;5.346;2023-08-24T06:01:38;43.15;;;24.92;;
25913;SDS011;13718;50.922;5.346;2023-08-24T06:04:12;40.92;;;25.42;;
25913;SDS011;13718;50.922;5.346;2023-08-24T06:06:38;40.70;;;25.10;;
25913;SDS011;13718;50.922;5.346;2023-08-24T06:09:03;41.83;;;24.95;;
25913;SDS011;13718;50.922;5.346;2023-08-24T06:11:29;44.45;;;23.63;;
25913;SDS011;13718;50.922;5.346;2023-08-24T06:13:55;32.67;;;23.17;;
25913;SDS011;13718;50.922;5.346;2023-08-24T06:16:20;31.88;;;21.90;;
25913;SDS011;13718;50.922;5.346;2023-08-24T06:18:46;42.22;;;21.17;;
25913;SDS011;13718;50.922;5.346;2023-08-24T06:21:12;33.88;;;19.80;;
25913;SDS011;13718;50.922;5.346;2023-08-24T06:23:38;38.25;;;19.85;;
25913;SDS011;13718;50.922;5.346;2023-08-24T06:26:04;34.30;;;18.02;;
25913;SDS011;13718;50.922;5.346;2023-08-24T06:28:29;27.63;;;16.77;;
25913;SDS011;13718;50.922;5.346;2023-08-24T06:30:55;26.88;;;17.17;;
25913;SDS011;13718;50.922;5.346;2023-08-24T06:33:21;32.00;;;17.02;;
25913;SDS011;13718;50.922;5.346;2023-08-24T06:35:51;29.48;;;16.85;;
25913;SDS011;13718;50.922;5.346;2023-08-24T06:38:17;29.88;;;16.00;;
25913;SDS011;13718;50.922;5.346;2023-08-24T06:40:42;26.13;;;16.45;;
25913;SDS011;13718;50.922;5.346;2023-08-24T06:43:08;25.85;;;15.90;;
25913;SDS011;13718;50.922;5.346;2023-08-24T06:45:34;28.05;;;16.10;;
25913;SDS011;13718;50.922;5.346;2023-08-24T06:47:59;23.05;;;14.00;;
25913;SDS011;13718;50.922;5.346;2023-08-24T06:50:25;26.83;;;14.77;;
25913;SDS011;13718;50.922;5.346;2023-08-24T06:52:51;26.92;;;14.68;;
25913;SDS011;13718;50.922;5.346;2023-08-24T06:55:16;23.73;;;13.10;;
25913;SDS011;13718;50.922;5.346;2023-08-24T06:57:42;25.70;;;13.90;;
25913;SDS011;13718;50.922;5.346;2023-08-24T07:00:12;28.23;;;12.85;;
25913;SDS011;13718;50.922;5.346;2023-08-24T07:02:40;20.08;;;10.82;;
25913;SDS011;13718;50.922;5.346;2023-08-24T07:05:05;26.58;;;12.45;;
25913;SDS011;13718;50.922;5.346;2023-08-24T07:07:33;24.30;;;11.18;;
25913;SDS011;13718;50.922;5.346;2023-08-24T07:09:59;21.38;;;9.95;;
25913;SDS011;13718;50.922;5.346;2023-08-24T07:12:25;18.65;;;9.82;;
25913;SDS011;13718;50.922;5.346;2023-08-24T07:14:50;21.75;;;9.45;;
25913;SDS011;13718;50.922;5.346;2023-08-24T07:17:16;19.35;;;9.10;;
25913;SDS011;13718;50.922;5.346;2023-08-24T07:19:41;16.48;;;8.90;;
25913;SDS011;13718;50.922;5.346;2023-08-24T07:22:07;17.52;;;9.23;;
25913;SDS011;13718;50.922;5.346;2023-08-24T07:24:33;16.33;;;8.52;;
25913;SDS011;13718;50.922;5.346;2023-08-24T07:27:01;16.08;;;8.52;;
25913;SDS011;13718;50.922;5.346;2023-08-24T07:29:26;15.82;;;7.90;;
25913;SDS011;13718;50.922;5.346;2023-08-24T07:31:52;16.52;;;7.63;;
25913;SDS011;13718;50.922;5.346;2023-08-24T07:34:17;14.00;;;7.68;;
25913;SDS011;13718;50.922;5.346;2023-08-24T07:36:43;13.27;;;7.30;;
25913;SDS011;13718;50.922;5.346;2023-08-24T07:39:09;15.45;;;7.78;;
25913;SDS011;13718;50.922;5.346;2023-08-24T07:41:36;17.27;;;7.03;;
25913;SDS011;13718;50.922;5.346;2023-08-24T07:44:02;18.50;;;7.10;;
25913;SDS011;13718;50.922;5.346;2023-08-24T07:46:28;16.33;;;6.97;;
25913;SDS011;13718;50.922;5.346;2023-08-24T07:48:53;14.85;;;7.00;;
25913;SDS011;13718;50.922;5.346;2023-08-24T07:51:19;11.50;;;5.85;;
25913;SDS011;13718;50.922;5.346;2023-08-24T07:53:44;12.95;;;6.93;;
25913;SDS011;13718;50.922;5.346;2023-08-24T07:56:10;14.80;;;6.32;;
25913;SDS011;13718;50.922;5.346;2023-08-24T07:58:36;15.65;;;5.32;;
25913;SDS011;13718;50.922;5.346;2023-08-24T08:01:01;13.27;;;5.68;;
25913;SDS011;13718;50.922;5.346;2023-08-24T08:03:27;11.30;;;5.10;;
25913;SDS011;13718;50.922;5.346;2023-08-24T08:05:53;14.27;;;4.93;;
25913;SDS011;13718;50.922;5.346;2023-08-24T08:08:19;14.48;;;4.57;;
25913;SDS011;13718;50.922;5.346;2023-08-24T08:10:45;14.02;;;5.22;;
25913;SDS011;13718;50.922;5.346;2023-08-24T08:13:11;10.20;;;4.45;;
25913;SDS011;13718;50.922;5.346;2023-08-24T08:15:36;7.47;;;4.65;;
25913;SDS011;13718;50.922;5.346;2023-08-24T08:18:03;11.68;;;4.40;;
25913;SDS011;13718;50.922;5.346;2023-08-24T08:20:30;11.02;;;4.43;;
25913;SDS011;13718;50.922;5.346;2023-08-24T08:22:55;10.48;;;3.80;;
25913;SDS011;13718;50.922;5.346;2023-08-24T08:25:21;9.82;;;4.13;;
25913;SDS011;13718;50.922;5.346;2023-08-24T08:27:47;8.10;;;4.30;;
25913;SDS011;13718;50.922;5.346;2023-08-24T08:30:14;8.95;;;4.22;;
25913;SDS011;13718;50.922;5.346;2023-08-24T08:32:40;10.07;;;4.28;;
25913;SDS011;13718;50.922;5.346;2023-08-24T08:35:06;12.43;;;4.75;;
25913;SDS011;13718;50.922;5.346;2023-08-24T08:37:33;9.15;;;4.95;;
25913;SDS011;13718;50.922;5.346;2023-08-24T08:39:59;7.57;;;4.47;;
25913;SDS011;13718;50.922;5.346;2023-08-24T08:42:24;11.07;;;4.55;;
25913;SDS011;13718;50.922;5.346;2023-08-24T08:44:50;10.73;;;4.35;;
25913;SDS011;13718;50.922;5.346;2023-08-24T08:47:19;12.20;;;4.45;;
25913;SDS011;13718;50.922;5.346;2023-08-24T08:49:45;9.40;;;4.07;;
25913;SDS011;13718;50.922;5.346;2023-08-24T08:52:13;11.85;;;4.53;;
25913;SDS011;13718;50.922;5.346;2023-08-24T08:54:38;10.30;;;4.10;;
25913;SDS011;13718;50.922;5.346;2023-08-24T08:57:05;11.55;;;4.50;;
25913;SDS011;13718;50.922;5.346;2023-08-24T08:59:32;9.15;;;4.30;;
25913;SDS011;13718;50.922;5.346;2023-08-24T09:01:58;8.50;;;3.63;;
25913;SDS011;13718;50.922;5.346;2023-08-24T09:04:31;8.15;;;3.95;;
25913;SDS011;13718;50.922;5.346;2023-08-24T09:06:57;9.25;;;4.70;;
25913;SDS011;13718;50.922;5.346;2023-08-24T09:09:26;6.80;;;3.63;;
25913;SDS011;13718;50.922;5.346;2023-08-24T09:11:52;10.88;;;4.40;;
25913;SDS011;13718;50.922;5.346;2023-08-24T09:14:18;11.23;;;4.55;;
25913;SDS011;13718;50.922;5.346;2023-08-24T09:16:44;7.90;;;4.32;;
25913;SDS011;13718;50.922;5.346;2023-08-24T09:19:13;10.80;;;4.20;;
25913;SDS011;13718;50.922;5.346;2023-08-24T09:21:39;10.98;;;4.82;;
25913;SDS011;13718;50.922;5.346;2023-08-24T09:24:06;11.13;;;3.95;;
25913;SDS011;13718;50.922;5.346;2023-08-24T09:26:36;11.60;;;3.90;;
25913;SDS011;13718;50.922;5.346;2023-08-24T09:29:11;6.45;;;3.58;;
25913;SDS011;13718;50.922;5.346;2023-08-24T09:31:40;12.60;;;4.35;;
25913;SDS011;13718;50.922;5.346;2023-08-24T09:34:09;10.95;;;4.45;;
25913;SDS011;13718;50.922;5.346;2023-08-24T09:36:35;9.60;;;3.70;;
25913;SDS011;13718;50.922;5.346;2023-08-24T09:39:02;8.23;;;3.97;;
25913;SDS011;13718;50.922;5.346;2023-08-24T09:44:04;8.00;;;4.03;;
25913;SDS011;13718;50.922;5.346;2023-08-24T09:46:30;8.90;;;3.70;;
25913;SDS011;13718;50.922;5.346;2023-08-24T09:48:56;9.05;;;4.10;;
25913;SDS011;13718;50.922;5.346;2023-08-24T09:51:25;10.18;;;3.90;;
25913;SDS011;13718;50.922;5.346;2023-08-24T09:53:52;9.10;;;4.20;;
25913;SDS011;13718;50.922;5.346;2023-08-24T09:56:25;8.63;;;4.55;;
25913;SDS011;13718;50.922;5.346;2023-08-24T09:58:53;10.20;;;4.35;;
25913;SDS011;13718;50.922;5.346;2023-08-24T10:01:20;9.80;;;4.10;;
25913;SDS011;13718;50.922;5.346;2023-08-24T10:03:46;10.00;;;4.47;;
25913;SDS011;13718;50.922;5.346;2023-08-24T10:06:16;9.60;;;4.20;;
25913;SDS011;13718;50.922;5.346;2023-08-24T10:08:47;10.68;;;4.57;;
25913;SDS011;13718;50.922;5.346;2023-08-24T10:11:18;12.55;;;5.55;;
25913;SDS011;13718;50.922;5.346;2023-08-24T10:13:53;12.35;;;4.60;;
25913;SDS011;13718;50.922;5.346;2023-08-24T10:16:25;11.27;;;4.55;;
25913;SDS011;13718;50.922;5.346;2023-08-24T10:18:53;12.32;;;4.80;;
25913;SDS011;13718;50.922;5.346;2023-08-24T10:21:20;11.13;;;5.13;;
25913;SDS011;13718;50.922;5.346;2023-08-24T10:23:50;10.85;;;5.32;;
25913;SDS011;13718;50.922;5.346;2023-08-24T10:26:16;11.70;;;5.38;;
25913;SDS011;13718;50.922;5.346;2023-08-24T10:28:46;11.25;;;5.45;;
25913;SDS011;13718;50.922;5.346;2023-08-24T10:31:14;8.98;;;5.68;;
25913;SDS011;13718;50.922;5.346;2023-08-24T10:33:40;11.68;;;5.43;;
25913;SDS011;13718;50.922;5.346;2023-08-24T10:36:07;18.40;;;6.53;;
25913;SDS011;13718;50.922;5.346;2023-08-24T10:38:34;13.27;;;6.55;;
25913;SDS011;13718;50.922;5.346;2023-08-24T10:41:06;14.70;;;5.75;;
25913;SDS011;13718;50.922;5.346;2023-08-24T10:43:36;13.15;;;6.05;;
25913;SDS011;13718;50.922;5.346;2023-08-24T10:46:02;18.70;;;6.47;;
25913;SDS011;13718;50.922;5.346;2023-08-24T10:48:56;23.08;;;7.03;;
25913;SDS011;13718;50.922;5.346;2023-08-24T10:51:24;13.77;;;6.50;;
25913;SDS011;13718;50.922;5.346;2023-08-24T10:53:55;14.65;;;6.78;;
25913;SDS011;13718;50.922;5.346;2023-08-24T10:56:24;14.23;;;7.03;;
25913;SDS011;13718;50.922;5.346;2023-08-24T10:59:09;16.83;;;8.02;;
25913;SDS011;13718;50.922;5.346;2023-08-24T11:01:40;15.07;;;7.72;;
25913;SDS011;13718;50.922;5.346;2023-08-24T11:04:07;19.60;;;9.18;;
25913;SDS011;13718;50.922;5.346;2023-08-24T11:06:50;16.73;;;9.00;;
25913;SDS011;13718;50.922;5.346;2023-08-24T11:09:23;18.35;;;9.55;;
25913;SDS011;13718;50.922;5.346;2023-08-24T11:12:02;20.58;;;10.65;;
25913;SDS011;13718;50.922;5.346;2023-08-24T11:14:30;21.58;;;10.48;;
25913;SDS011;13718;50.922;5.346;2023-08-24T11:17:16;18.00;;;10.85;;
25913;SDS011;13718;50.922;5.346;2023-08-24T11:19:49;18.67;;;11.50;;
25913;SDS011;13718;50.922;5.346;2023-08-24T11:22:16;21.83;;;12.32;;
25913;SDS011;13718;50.922;5.346;2023-08-24T11:24:42;20.35;;;11.65;;
25913;SDS011;13718;50.922;5.346;2023-08-24T11:27:08;19.60;;;11.23;;
25913;SDS011;13718;50.922;5.346;2023-08-24T11:29:34;22.38;;;11.45;;
25913;SDS011;13718;50.922;5.346;2023-08-24T11:31:59;19.10;;;12.18;;
25913;SDS011;13718;50.922;5.346;2023-08-24T11:34:25;19.08;;;13.05;;
25913;SDS011;13718;50.922;5.346;2023-08-24T11:36:51;20.50;;;13.23;;
25913;SDS011;13718;50.922;5.346;2023-08-24T11:39:17;22.83;;;14.60;;
25913;SDS011;13718;50.922;5.346;2023-08-24T11:41:45;23.92;;;14.45;;
25913;SDS011;13718;50.922;5.346;2023-08-24T11:44:26;26.02;;;15.10;;
25913;SDS011;13718;50.922;5.346;2023-08-24T11:46:52;23.83;;;15.27;;
25913;SDS011;13718;50.922;5.346;2023-08-24T11:49:18;22.52;;;14.82;;
25913;SDS011;13718;50.922;5.346;2023-08-24T11:51:43;21.58;;;14.07;;
25913;SDS011;13718;50.922;5.346;2023-08-24T11:54:09;22.48;;;14.80;;
25913;SDS011;13718;50.922;5.346;2023-08-24T11:56:41;20.95;;;14.82;;
25913;SDS011;13718;50.922;5.346;2023-08-24T11:59:10;19.80;;;14.00;;
25913;SDS011;13718;50.922;5.346;2023-08-24T12:01:41;19.10;;;12.65;;
25913;SDS011;13718;50.922;5.346;2023-08-24T12:04:08;19.67;;;11.57;;
25913;SDS011;13718;50.922;5.346;2023-08-24T12:06:34;16.00;;;8.68;;
25913;SDS011;13718;50.922;5.346;2023-08-24T12:08:59;13.65;;;8.40;;
25913;SDS011;13718;50.922;5.346;2023-08-24T12:11:25;16.80;;;8.73;;
25913;SDS011;13718;50.922;5.346;2023-08-24T12:13:52;15.35;;;7.93;;
25913;SDS011;13718;50.922;5.346;2023-08-24T12:16:19;13.73;;;8.23;;
25913;SDS011;13718;50.922;5.346;2023-08-24T12:18:46;13.52;;;8.13;;
25913;SDS011;13718;50.922;5.346;2023-08-24T12:21:19;14.05;;;7.85;;
25913;SDS011;13718;50.922;5.346;2023-08-24T12:23:55;18.65;;;9.07;;
25913;SDS011;13718;50.922;5.346;2023-08-24T12:26:25;13.18;;;7.28;;
25913;SDS011;13718;50.922;5.346;2023-08-24T12:28:52;12.85;;;6.85;;
25913;SDS011;13718;50.922;5.346;2023-08-24T12:31:18;11.43;;;5.72;;
25913;SDS011;13718;50.922;5.346;2023-08-24T12:33:44;12.10;;;6.18;;
25913;SDS011;13718;50.922;5.346;2023-08-24T12:36:10;11.75;;;6.57;;
25913;SDS011;13718;50.922;5.346;2023-08-24T12:38:36;16.55;;;6.00;;
25913;SDS011;13718;50.922;5.346;2023-08-24T12:41:02;11.77;;;5.95;;
25913;SDS011;13718;50.922;5.346;2023-08-24T12:43:28;11.18;;;5.80;;
25913;SDS011;13718;50.922;5.346;2023-08-24T12:45:53;10.88;;;5.85;;
25913;SDS011;13718;50.922;5.346;2023-08-24T12:48:19;12.35;;;6.32;;
25913;SDS011;13718;50.922;5.346;2023-08-24T12:50:44;13.55;;;6.25;;
25913;SDS011;13718;50.922;5.346;2023-08-24T12:53:10;12.57;;;6.22;;
25913;SDS011;13718;50.922;5.346;2023-08-24T12:55:38;13.60;;;6.72;;
25913;SDS011;13718;50.922;5.346;2023-08-24T12:58:04;12.85;;;6.85;;
25913;SDS011;13718;50.922;5.346;2023-08-24T13:00:30;14.65;;;8.55;;
25913;SDS011;13718;50.922;5.346;2023-08-24T13:02:56;19.02;;;8.38;;
25913;SDS011;13718;50.922;5.346;2023-08-24T13:05:22;12.75;;;6.85;;
25913;SDS011;13718;50.922;5.346;2023-08-24T13:07:47;13.27;;;6.45;;
25913;SDS011;13718;50.922;5.346;2023-08-24T13:10:13;16.77;;;7.78;;
25913;SDS011;13718;50.922;5.346;2023-08-24T13:12:39;13.85;;;6.50;;
25913;SDS011;13718;50.922;5.346;2023-08-24T13:15:04;13.27;;;6.43;;
25913;SDS011;13718;50.922;5.346;2023-08-24T13:17:31;21.02;;;8.45;;
25913;SDS011;13718;50.922;5.346;2023-08-24T13:19:56;10.30;;;6.38;;
25913;SDS011;13718;50.922;5.346;2023-08-24T13:22:22;15.05;;;7.10;;
25913;SDS011;13718;50.922;5.346;2023-08-24T13:24:47;15.52;;;7.18;;
25913;SDS011;13718;50.922;5.346;2023-08-24T13:27:13;14.35;;;7.15;;
25913;SDS011;13718;50.922;5.346;2023-08-24T13:29:40;16.52;;;6.70;;
25913;SDS011;13718;50.922;5.346;2023-08-24T13:32:05;15.75;;;7.35;;
25913;SDS011;13718;50.922;5.346;2023-08-24T13:34:31;15.40;;;6.60;;
25913;SDS011;13718;50.922;5.346;2023-08-24T13:36:57;15.98;;;6.63;;
25913;SDS011;13718;50.922;5.346;2023-08-24T13:39:26;16.48;;;6.55;;
25913;SDS011;13718;50.922;5.346;2023-08-24T13:41:53;15.30;;;7.63;;
25913;SDS011;13718;50.922;5.346;2023-08-24T13:44:19;12.63;;;5.78;;
25913;SDS011;13718;50.922;5.346;2023-08-24T13:46:45;13.15;;;5.70;;
25913;SDS011;13718;50.922;5.346;2023-08-24T13:49:11;12.40;;;5.70;;
25913;SDS011;13718;50.922;5.346;2023-08-24T13:51:37;10.25;;;5.57;;
25913;SDS011;13718;50.922;5.346;2023-08-24T13:54:02;9.45;;;4.45;;
25913;SDS011;13718;50.922;5.346;2023-08-24T13:56:37;6.95;;;3.97;;
25913;SDS011;13718;50.922;5.346;2023-08-24T13:59:03;12.38;;;4.75;;
25913;SDS011;13718;50.922;5.346;2023-08-24T14:01:28;11.25;;;4.35;;
25913;SDS011;13718;50.922;5.346;2023-08-24T14:03:54;8.45;;;4.30;;
25913;SDS011;13718;50.922;5.346;2023-08-24T14:06:20;7.88;;;3.60;;
25913;SDS011;13718;50.922;5.346;2023-08-24T14:08:45;11.00;;;4.25;;
25913;SDS011;13718;50.922;5.346;2023-08-24T14:11:11;10.07;;;4.03;;
25913;SDS011;13718;50.922;5.346;2023-08-24T14:13:36;13.80;;;4.30;;
25913;SDS011;13718;50.922;5.346;2023-08-24T14:16:02;7.18;;;3.20;;
25913;SDS011;13718;50.922;5.346;2023-08-24T14:18:29;7.53;;;3.00;;
25913;SDS011;13718;50.922;5.346;2023-08-24T14:20:55;9.20;;;3.50;;
25913;SDS011;13718;50.922;5.346;2023-08-24T14:23:21;6.05;;;3.05;;
25913;SDS011;13718;50.922;5.346;2023-08-24T14:25:46;8.90;;;3.65;;
25913;SDS011;13718;50.922;5.346;2023-08-24T14:28:13;9.15;;;3.28;;
25913;SDS011;13718;50.922;5.346;2023-08-24T14:30:38;8.38;;;3.35;;
25913;SDS011;13718;50.922;5.346;2023-08-24T14:33:05;8.07;;;3.25;;